createdAt,value
2022-10-18T00:00:20.619Z,100111.19
2022-10-18T00:02:47.753Z,100109.38
2022-10-18T00:05:15.128Z,100105.50
2022-10-18T00:07:42.026Z,100095.13
2022-10-18T00:10:09.514Z,100088.63
2022-10-18T00:12:37.851Z,100081.78
2022-10-18T00:15:06.725Z,100080.28
2022-10-18T00:17:38.448Z,100082.97
2022-10-18T00:20:07.100Z,100081.97
2022-10-18T00:22:37.238Z,100080.59
2022-10-18T00:25:05.320Z,100070.59
2022-10-18T00:28:02.478Z,100069.25
2022-10-18T00:30:29.437Z,100064.41
2022-10-18T00:32:56.428Z,100058.41
2022-10-18T00:35:23.711Z,100062.41
2022-10-18T00:37:50.732Z,100060.56
2022-10-18T00:40:17.831Z,100049.53
2022-10-18T00:42:44.878Z,100048.19
2022-10-18T00:45:17.315Z,100031.16
2022-10-18T00:47:48.480Z,100046.84
2022-10-18T00:50:20.145Z,100036.66
2022-10-18T00:52:51.723Z,100024.09
2022-10-18T00:55:19.283Z,100030.13
2022-10-18T00:57:47.174Z,100031.31
2022-10-18T01:00:15.097Z,100030.47
2022-10-18T01:02:43.784Z,100025.13
2022-10-18T01:05:13.887Z,100024.13
2022-10-18T01:07:46.777Z,100026.47
2022-10-18T01:10:42.731Z,100014.09
2022-10-18T01:13:34.316Z,100011.28
2022-10-18T01:16:21.327Z,100016.94
2022-10-18T01:19:12.067Z,100024.97
2022-10-18T01:22:00.549Z,100017.97
2022-10-18T01:27:51.055Z,100023.66
2022-10-18T01:30:56.423Z,100028.84
2022-10-18T01:33:26.984Z,100022.81
2022-10-18T01:36:09.920Z,100014.13
2022-10-18T01:38:38.986Z,100011.63
2022-10-18T01:41:11.748Z,99999.78
2022-10-18T01:43:43.956Z,100008.63
2022-10-18T01:46:14.715Z,100007.47
2022-10-18T01:48:41.878Z,100004.94
2022-10-18T01:51:09.135Z,99995.75
2022-10-18T01:53:36.635Z,99994.91
2022-10-18T01:56:27.961Z,99999.06
2022-10-18T01:59:05.220Z,99980.19
2022-10-18T02:01:58.399Z,99974.66
2022-10-18T02:04:32.400Z,99978.53
2022-10-18T02:07:09.829Z,99972.88
2022-10-18T02:09:50.976Z,99973.19
2022-10-18T02:12:19.427Z,99968.69
2022-10-18T02:14:48.541Z,99964.66
2022-10-18T02:17:17.379Z,99973.69
2022-10-18T02:19:52.333Z,99963.47
2022-10-18T02:22:20.234Z,99966.16
2022-10-18T02:24:54.232Z,99965.31
2022-10-18T02:27:22.145Z,99970.69
2022-10-18T02:29:49.742Z,99959.63
2022-10-18T02:32:25.703Z,99956.28
2022-10-18T02:35:09.335Z,99957.50
2022-10-18T02:37:40.340Z,99946.97
2022-10-18T02:40:10.324Z,99944.94
2022-10-18T02:42:47.970Z,99944.94
2022-10-18T02:45:16.763Z,99941.28
2022-10-18T02:47:43.913Z,99935.44
2022-10-18T02:50:11.238Z,99944.09
2022-10-18T02:52:38.280Z,99936.75
2022-10-18T02:55:06.566Z,99935.56
2022-10-18T02:57:34.056Z,99918.53
2022-10-18T03:00:01.407Z,99920.22
2022-10-18T03:02:30.839Z,99916.88
2022-10-18T03:04:57.927Z,99903.50
2022-10-18T03:07:24.924Z,99903.84
2022-10-18T03:09:51.953Z,99908.03
2022-10-18T03:12:18.911Z,99904.19
2022-10-18T03:14:45.846Z,99896.19
2022-10-18T03:17:12.983Z,99880.53
2022-10-18T03:19:40.153Z,99884.34
2022-10-18T03:22:07.319Z,99890.69
2022-10-18T03:24:34.308Z,99878.84
2022-10-18T03:27:01.250Z,99863.97
2022-10-18T03:29:28.799Z,99867.66
2022-10-18T03:31:55.776Z,99862.78
2022-10-18T03:34:22.659Z,99859.09
2022-10-18T03:36:49.595Z,99853.06
2022-10-18T03:39:18.667Z,99843.75
2022-10-18T03:41:45.668Z,99845.09
2022-10-18T03:44:12.817Z,99834.28
2022-10-18T03:46:39.658Z,99839.44
2022-10-18T03:49:06.496Z,99832.44
2022-10-18T03:51:33.458Z,99826.97
2022-10-18T03:54:00.515Z,99825.78
2022-10-18T03:56:27.562Z,99809.06
2022-10-18T03:58:54.679Z,99808.72
2022-10-18T04:01:21.801Z,99812.38
2022-10-18T04:03:48.808Z,99801.06
2022-10-18T04:06:15.834Z,99802.72
2022-10-18T04:08:42.808Z,99806.75
2022-10-18T04:11:10.999Z,99802.09
2022-10-18T04:13:38.043Z,99814.75
2022-10-18T04:16:07.395Z,99797.53
2022-10-18T04:18:34.397Z,99796.69
2022-10-18T04:21:01.353Z,99793.31
2022-10-18T04:23:28.472Z,99788.31
2022-10-18T04:25:55.507Z,99784.81
2022-10-18T04:28:22.417Z,99787.13
2022-10-18T04:30:53.400Z,99779.28
2022-10-18T04:33:20.818Z,99775.97
2022-10-18T04:35:51.075Z,99776.47
2022-10-18T04:38:18.468Z,99769.97
2022-10-18T04:40:45.519Z,99772.63
2022-10-18T04:43:12.774Z,99770.91
2022-10-18T04:45:39.867Z,99765.53
2022-10-18T04:48:07.106Z,99755.19
2022-10-18T04:50:34.082Z,99756.84
2022-10-18T04:53:01.082Z,99751.50
2022-10-18T04:55:28.081Z,99750.81
2022-10-18T04:57:55.158Z,99750.66
2022-10-18T05:00:22.135Z,99750.66
2022-10-18T05:02:49.451Z,99741.13
2022-10-18T05:05:16.702Z,99740.06
2022-10-18T05:07:46.774Z,99744.41
2022-10-18T05:10:13.935Z,99740.69
2022-10-18T05:12:40.936Z,99730.34
2022-10-18T05:15:08.322Z,99738.03
2022-10-18T05:17:35.675Z,99739.75
2022-10-18T05:20:05.106Z,99744.16
2022-10-18T05:22:32.394Z,99746.81
2022-10-18T05:24:59.673Z,99752.81
2022-10-18T05:27:26.612Z,99747.25
2022-10-18T05:29:53.485Z,99757.59
2022-10-18T05:32:20.663Z,99766.25
2022-10-18T05:34:47.556Z,99754.56
2022-10-18T05:37:14.789Z,99751.91
2022-10-18T05:39:41.843Z,99754.84
2022-10-18T05:42:09.006Z,99751.72
2022-10-18T05:44:39.103Z,99751.16
2022-10-18T05:47:06.130Z,99759.03
2022-10-18T05:49:33.192Z,99746.03
2022-10-18T05:52:00.168Z,99756.25
2022-10-18T05:54:27.105Z,99740.69
2022-10-18T05:56:53.977Z,99750.00
2022-10-18T05:59:20.974Z,99732.75
2022-10-18T06:01:47.970Z,99735.34
2022-10-18T06:04:14.942Z,99724.41
2022-10-18T06:06:42.021Z,99723.25
2022-10-18T06:09:09.225Z,99710.03
2022-10-18T06:11:37.301Z,99709.69
2022-10-18T06:14:05.284Z,99701.66
2022-10-18T06:16:32.857Z,99695.97
2022-10-18T06:19:00.388Z,99691.16
2022-10-18T06:21:27.720Z,99694.31
2022-10-18T06:23:57.166Z,99685.09
2022-10-18T06:26:24.852Z,99680.22
2022-10-18T06:28:51.991Z,99677.03
2022-10-18T06:31:19.254Z,99677.88
2022-10-18T06:33:46.250Z,99665.84
2022-10-18T06:36:15.892Z,99662.69
2022-10-18T06:38:43.410Z,99652.91
2022-10-18T06:41:11.127Z,99638.97
2022-10-18T06:43:38.123Z,99628.91
2022-10-18T06:46:08.205Z,99612.16
2022-10-18T06:53:08.645Z,99540.91
2022-10-18T06:55:36.041Z,99550.25
2022-10-18T06:58:03.184Z,99562.53
2022-10-18T07:00:30.265Z,99577.91
2022-10-18T07:02:58.165Z,99566.41
2022-10-18T07:05:25.601Z,99539.31
2022-10-18T07:07:56.345Z,99536.22
2022-10-18T07:10:24.584Z,99512.81
2022-10-18T07:12:59.180Z,99523.63
2022-10-18T07:15:38.635Z,99509.88
2022-10-18T07:18:05.884Z,99467.19
2022-10-18T07:20:32.940Z,99484.78
2022-10-18T07:22:59.875Z,99478.06
2022-10-18T07:25:28.504Z,99461.56
2022-10-18T07:27:57.492Z,99451.19
2022-10-18T07:30:24.459Z,99451.34
2022-10-18T07:32:52.032Z,99432.16
2022-10-18T07:35:19.080Z,99414.16
2022-10-18T07:37:45.952Z,99397.88
2022-10-18T07:40:13.307Z,99397.22
2022-10-18T07:42:40.341Z,99384.13
2022-10-18T07:45:07.717Z,99369.66
2022-10-18T07:47:35.366Z,99373.06
2022-10-18T07:50:02.495Z,99352.31
2022-10-18T07:52:30.093Z,99340.53
2022-10-18T07:54:57.250Z,99329.66
2022-10-18T07:57:24.291Z,99301.00
2022-10-18T07:59:56.503Z,99299.13
2022-10-18T08:02:26.107Z,99307.53
2022-10-18T08:04:53.120Z,99277.69
2022-10-18T08:07:20.225Z,99254.00
2022-10-18T08:09:47.400Z,99245.59
2022-10-18T08:12:15.728Z,99237.88
2022-10-18T08:14:42.838Z,99228.53
2022-10-18T08:17:09.931Z,99225.69
2022-10-18T08:19:36.847Z,99198.91
2022-10-18T08:22:03.822Z,99182.34
2022-10-18T08:24:31.055Z,99193.97
2022-10-18T08:26:58.143Z,99163.31
2022-10-18T08:29:29.184Z,99154.84
2022-10-18T08:31:57.972Z,99129.13
2022-10-18T08:34:25.201Z,99085.56
2022-10-18T08:36:52.216Z,99060.56
2022-10-18T08:39:19.149Z,99038.94
2022-10-18T08:42:04.370Z,99029.97
2022-10-18T08:44:33.083Z,99008.28
2022-10-18T08:47:06.839Z,99005.72
2022-10-18T08:49:47.179Z,98976.09
2022-10-18T08:52:45.129Z,98954.88
2022-10-18T08:55:38.574Z,98940.63
2022-10-18T08:58:26.852Z,98940.25
2022-10-18T09:00:56.956Z,98940.44
2022-10-18T09:03:36.570Z,98930.22
2022-10-18T09:06:10.234Z,98956.97
2022-10-18T09:08:58.471Z,98979.53
2022-10-18T09:11:40.437Z,98989.09
2022-10-18T09:14:07.347Z,98971.03
2022-10-18T09:16:49.552Z,98968.63
2022-10-18T09:19:19.485Z,98977.00
2022-10-18T09:21:55.200Z,98951.31
2022-10-18T09:24:40.350Z,98938.22
2022-10-18T09:27:18.756Z,98941.19
2022-10-18T09:30:15.122Z,98932.03
2022-10-18T09:33:00.431Z,98922.47
2022-10-18T09:35:57.633Z,98913.69
2022-10-18T09:39:00.456Z,98906.56
2022-10-18T09:41:38.076Z,98890.53
2022-10-18T09:44:26.000Z,98903.09
2022-10-18T09:47:14.583Z,98899.03
2022-10-18T09:49:51.416Z,98904.41
2022-10-18T09:52:27.819Z,98901.59
2022-10-18T09:55:02.591Z,98878.13
2022-10-18T09:57:39.607Z,98880.84
2022-10-18T10:00:17.177Z,98855.56
2022-10-18T10:02:44.417Z,98868.28
2022-10-18T10:05:15.887Z,98863.56
2022-10-18T10:07:46.094Z,98856.16
2022-10-18T10:10:29.041Z,98847.72
2022-10-18T10:13:23.263Z,98848.56
2022-10-18T10:16:00.641Z,98841.97
2022-10-18T10:18:30.431Z,98829.41
2022-10-18T10:21:00.439Z,98828.78
2022-10-18T10:23:31.325Z,98821.78
2022-10-18T10:26:02.310Z,98822.41
2022-10-18T10:28:34.590Z,98799.53
2022-10-18T10:31:30.866Z,98808.59
2022-10-18T10:34:01.834Z,98804.44
2022-10-18T10:36:30.148Z,98808.13
2022-10-18T10:39:19.177Z,98806.72
2022-10-18T10:42:01.047Z,98802.34
2022-10-18T10:44:36.499Z,98791.22
2022-10-18T10:47:04.586Z,98784.34
2022-10-18T10:49:52.045Z,98788.25
2022-10-18T10:52:28.428Z,98784.56
2022-10-18T10:55:06.189Z,98786.97
2022-10-18T10:57:40.003Z,98782.81
2022-10-18T11:00:07.891Z,98773.91
2022-10-18T11:02:37.018Z,98781.94
2022-10-18T11:05:26.570Z,98773.63
2022-10-18T11:08:04.399Z,98755.44
2022-10-18T11:10:39.474Z,98739.72
2022-10-18T11:13:49.946Z,98740.03
2022-10-18T11:16:32.577Z,98730.44
2022-10-18T11:19:03.379Z,98738.13
2022-10-18T11:21:32.778Z,98752.97
2022-10-18T11:24:03.286Z,98734.56
2022-10-18T11:26:33.956Z,98758.72
2022-10-18T11:29:37.713Z,98767.13
2022-10-18T11:32:19.811Z,98759.22
2022-10-18T11:34:52.927Z,98747.59
2022-10-18T11:37:29.969Z,98750.47
2022-10-18T11:40:03.884Z,98752.53
2022-10-18T11:42:49.665Z,98743.00
2022-10-18T11:45:25.804Z,98755.09
2022-10-18T11:47:56.530Z,98747.88
2022-10-18T11:50:43.631Z,98743.16
2022-10-18T11:53:19.659Z,98752.78
2022-10-18T11:56:28.163Z,98751.91
2022-10-18T11:59:22.447Z,98758.91
2022-10-18T12:01:49.246Z,98753.09
2022-10-18T12:04:23.739Z,98752.00
2022-10-18T12:06:56.721Z,98749.69
2022-10-18T12:09:32.686Z,98755.34
2022-10-18T12:12:02.659Z,98752.81
2022-10-18T12:14:35.832Z,98750.50
2022-10-18T12:17:39.843Z,98754.31
2022-10-18T12:19:57.720Z,98755.88
2022-10-18T12:22:49.619Z,98750.94
2022-10-18T12:25:19.222Z,98759.38
2022-10-18T12:28:16.564Z,98748.03
2022-10-18T12:30:52.084Z,98761.53
2022-10-18T12:33:28.191Z,98754.09
2022-10-18T12:36:33.254Z,98757.16
2022-10-18T12:39:07.070Z,98762.53
2022-10-18T12:41:37.767Z,98764.59
2022-10-18T12:44:15.731Z,98758.78
2022-10-18T12:46:46.784Z,98752.94
2022-10-18T12:49:17.750Z,98749.00
2022-10-18T12:51:57.224Z,98743.97
2022-10-18T12:54:29.399Z,98749.81
2022-10-18T12:56:57.978Z,98747.88
2022-10-18T12:59:28.310Z,98755.94
2022-10-18T13:01:57.946Z,98750.13
2022-10-18T13:04:27.955Z,98749.66
2022-10-18T13:07:00.775Z,98770.28
2022-10-18T13:09:30.318Z,98764.22
2022-10-18T13:12:09.749Z,98769.13
2022-10-18T13:14:48.228Z,98770.56
2022-10-18T13:17:41.331Z,98763.66
2022-10-18T13:20:59.452Z,98766.50
2022-10-18T13:23:55.958Z,98765.59
2022-10-18T13:26:37.112Z,98764.53
2022-10-18T13:29:13.079Z,98776.34
2022-10-18T13:31:49.831Z,98770.63
2022-10-18T13:37:07.268Z,98764.13
2022-10-18T13:39:38.115Z,98773.69
2022-10-18T13:42:14.289Z,98783.56
2022-10-18T13:44:43.792Z,98784.72
2022-10-18T13:47:32.239Z,98789.31
2022-10-18T13:50:07.214Z,98794.16
2022-10-18T13:52:43.338Z,98802.22
2022-10-18T13:55:13.080Z,98804.09
2022-10-18T13:57:47.901Z,98797.75
2022-10-18T14:03:55.480Z,98809.69
2022-10-18T14:06:25.416Z,98801.22
2022-10-18T14:09:06.348Z,98813.09
2022-10-18T14:11:46.455Z,98807.78
2022-10-18T14:14:23.360Z,98822.88
2022-10-18T14:20:36.909Z,98824.53
2022-10-18T14:23:38.170Z,98831.38
2022-10-18T14:26:12.023Z,98818.25
2022-10-18T14:28:58.631Z,98821.69
2022-10-18T14:31:26.139Z,98823.63
2022-10-18T14:33:57.940Z,98830.47
2022-10-18T14:36:29.771Z,98828.84
2022-10-18T14:38:58.116Z,98817.53
2022-10-18T14:41:25.196Z,98823.72
2022-10-18T14:43:54.940Z,98825.84
2022-10-18T14:46:30.036Z,98817.00
2022-10-18T14:49:05.144Z,98838.13
2022-10-18T14:51:36.533Z,98826.25
2022-10-18T14:54:04.970Z,98830.38
2022-10-18T14:56:45.976Z,98854.03
2022-10-18T14:59:24.345Z,98870.09
2022-10-18T15:02:22.532Z,98862.88
2022-10-18T15:05:14.620Z,98855.03
2022-10-18T15:07:58.190Z,98851.44
2022-10-18T15:10:38.325Z,98868.75
2022-10-18T15:13:49.403Z,98860.19
2022-10-18T15:16:35.205Z,98854.28
2022-10-18T15:19:42.881Z,98852.41
2022-10-18T15:22:33.067Z,98868.50
2022-10-18T15:25:46.057Z,98862.53
2022-10-18T15:28:54.083Z,98895.06
2022-10-18T15:31:40.461Z,98909.94
2022-10-18T15:34:12.012Z,98908.44
2022-10-18T15:36:40.717Z,98912.34
2022-10-18T15:39:14.248Z,98897.81
2022-10-18T15:41:52.983Z,98925.00
2022-10-18T15:44:28.757Z,98925.22
2022-10-18T15:47:34.207Z,98897.03
2022-10-18T15:50:05.310Z,98921.59
2022-10-18T15:52:40.922Z,98930.44
2022-10-18T15:55:30.557Z,98932.81
2022-10-18T15:58:12.266Z,98928.19
2022-10-18T16:00:41.422Z,98951.22
2022-10-18T16:03:14.135Z,98960.31
2022-10-18T16:05:45.666Z,98935.38
2022-10-18T16:08:26.692Z,98952.88
2022-10-18T16:10:54.794Z,98949.81
2022-10-18T16:13:21.837Z,98949.03
2022-10-18T16:15:49.442Z,98966.09
2022-10-18T16:18:19.686Z,98960.31
2022-10-18T16:20:52.673Z,98956.47
2022-10-18T16:24:04.383Z,98952.16
2022-10-18T16:26:32.271Z,98979.22
2022-10-18T16:28:59.979Z,98983.34
2022-10-18T16:31:30.440Z,98985.66
2022-10-18T16:33:58.214Z,98978.41
2022-10-18T16:36:29.132Z,98993.66
2022-10-18T16:39:01.371Z,98978.41
2022-10-18T16:41:28.876Z,99008.09
2022-10-18T16:43:55.842Z,99000.69
2022-10-18T16:46:27.566Z,99014.72
2022-10-18T16:48:59.358Z,98999.91
2022-10-18T16:51:32.854Z,98998.50
2022-10-18T16:54:07.227Z,99017.88
2022-10-18T16:56:34.345Z,99033.59
2022-10-18T16:59:02.145Z,99029.06
2022-10-18T17:01:29.189Z,99029.28
2022-10-18T17:03:59.101Z,99038.38
2022-10-18T17:06:33.081Z,99059.47
2022-10-18T17:09:00.099Z,99040.72
2022-10-18T17:11:28.462Z,99038.88
2022-10-18T17:13:56.016Z,99039.75
2022-10-18T17:16:34.388Z,99028.84
2022-10-18T17:19:04.737Z,99024.09
2022-10-18T17:25:14.979Z,99005.16
2022-10-18T17:28:20.901Z,99014.22
2022-10-18T17:33:45.587Z,99010.91
2022-10-18T17:36:14.818Z,99047.25
2022-10-18T17:39:31.583Z,99029.75
2022-10-18T17:47:26.256Z,99027.47
2022-10-18T17:50:43.559Z,99016.97
2022-10-18T17:53:56.736Z,99042.56
2022-10-18T17:56:31.241Z,99039.88
2022-10-18T17:58:59.715Z,99031.00
2022-10-18T18:01:26.934Z,99049.34
2022-10-18T18:03:58.640Z,99066.28
2022-10-18T18:06:31.534Z,99060.50
2022-10-18T18:09:00.276Z,99074.53
2022-10-18T18:11:27.815Z,99068.34
2022-10-18T18:13:56.632Z,99054.31
2022-10-18T18:16:26.480Z,99052.66
2022-10-18T18:18:56.416Z,99050.41
2022-10-18T18:21:25.000Z,99055.13
2022-10-18T18:23:52.777Z,99065.69
2022-10-18T18:26:21.296Z,99066.50
2022-10-18T18:28:48.841Z,99050.00
2022-10-18T18:31:25.462Z,99054.09
2022-10-18T18:33:54.942Z,99044.56
2022-10-18T18:36:25.535Z,99050.56
2022-10-18T18:38:56.907Z,99056.72
2022-10-18T18:41:26.481Z,99064.94
2022-10-18T18:43:59.003Z,99049.66
2022-10-18T18:46:33.330Z,99052.53
2022-10-18T18:49:00.784Z,99043.03
2022-10-18T18:51:28.092Z,99042.00
2022-10-18T18:53:55.231Z,99050.44
2022-10-18T18:56:24.996Z,99041.34
2022-10-18T18:58:53.040Z,99033.47
2022-10-18T19:01:23.863Z,99036.38
2022-10-18T19:03:53.217Z,99049.94
2022-10-18T19:06:23.467Z,99039.41
2022-10-18T19:08:55.594Z,99036.75
2022-10-18T19:11:23.093Z,99051.94
2022-10-18T19:13:50.347Z,99062.66
2022-10-18T19:16:19.371Z,99058.16
2022-10-18T19:18:54.910Z,99071.75
2022-10-18T19:21:25.523Z,99077.09
2022-10-18T19:23:52.886Z,99072.78
2022-10-18T19:26:25.720Z,99064.97
2022-10-18T19:28:56.003Z,99062.28
2022-10-18T19:31:23.242Z,99068.25
2022-10-18T19:33:59.288Z,99071.75
2022-10-18T19:36:28.333Z,99070.50
2022-10-18T19:38:55.362Z,99067.81
2022-10-18T19:43:56.775Z,99064.56
2022-10-18T19:46:27.428Z,99063.56
2022-10-18T19:48:54.696Z,99062.34
2022-10-18T20:43:30.175Z,99013.75
2022-10-18T20:45:58.858Z,99031.06
2022-10-18T20:48:26.818Z,99023.03
2022-10-18T20:50:53.751Z,99028.16
2022-10-18T20:53:22.312Z,99031.50
2022-10-18T20:55:50.172Z,99029.47
2022-10-18T20:58:17.423Z,99017.31
2022-10-18T21:00:44.308Z,99013.81
2022-10-18T21:05:39.119Z,99021.66
2022-10-18T21:08:06.043Z,99023.28
2022-10-18T21:10:34.185Z,99027.22
2022-10-18T21:13:01.252Z,99023.72
2022-10-18T21:15:28.313Z,99028.66
2022-10-18T21:17:55.329Z,99025.59
2022-10-18T21:20:22.318Z,99026.00
2022-10-18T21:22:51.922Z,99024.75
2022-10-18T21:25:19.034Z,99024.56
2022-10-18T21:27:46.051Z,99026.63
2022-10-18T21:32:45.147Z,99017.16
2022-10-18T21:35:12.333Z,99008.91
2022-10-18T21:37:39.434Z,99001.09
2022-10-18T21:40:08.565Z,99006.44
2022-10-18T21:42:35.669Z,99006.44
2022-10-18T21:45:03.089Z,99015.91
2022-10-18T21:47:30.155Z,99008.50
2022-10-18T21:49:58.048Z,99013.03
2022-10-18T21:52:27.100Z,99012.63
2022-10-18T21:54:54.108Z,99013.44
2022-10-18T21:57:21.146Z,98989.13
2022-10-18T21:59:48.034Z,99001.09
2022-10-18T22:02:15.391Z,98996.56
2022-10-18T22:04:42.387Z,98982.94
2022-10-18T22:07:09.527Z,98992.81
2022-10-18T22:09:36.496Z,98993.88
2022-10-18T22:12:03.902Z,98988.09
2022-10-18T22:14:31.042Z,98988.28
2022-10-18T22:16:58.078Z,98994.88
2022-10-18T22:19:25.064Z,98991.63
2022-10-18T22:21:52.092Z,98986.66
2022-10-18T22:24:19.249Z,98987.31
2022-10-18T22:26:46.912Z,98980.91
2022-10-18T22:29:19.532Z,98976.78
2022-10-18T22:31:49.909Z,98967.50
2022-10-18T22:34:22.497Z,98963.59
2022-10-18T22:36:49.972Z,98952.03
2022-10-18T22:39:17.518Z,98966.47
2022-10-18T22:41:44.918Z,98969.34
2022-10-18T22:44:13.221Z,98966.91
2022-10-18T22:46:41.561Z,98963.19
2022-10-18T22:49:08.690Z,98958.44
2022-10-18T22:54:07.552Z,98976.38
2022-10-18T22:56:35.087Z,98958.22
2022-10-18T22:59:02.126Z,98959.44
2022-10-18T23:01:29.713Z,98949.97
2022-10-18T23:03:58.742Z,98927.25
2022-10-18T23:06:36.379Z,98938.00
2022-10-18T23:09:06.819Z,98926.28
2022-10-18T23:11:34.831Z,98924.00
2022-10-18T23:14:03.862Z,98927.91
2022-10-18T23:16:31.481Z,98921.09
2022-10-18T23:18:59.549Z,98909.56
2022-10-18T23:21:28.238Z,98913.88
2022-10-18T23:23:56.233Z,98903.38
2022-10-18T23:26:26.246Z,98908.72
2022-10-18T23:28:54.765Z,98910.56
2022-10-18T23:31:30.695Z,98894.09
2022-10-18T23:34:01.259Z,98896.53
2022-10-18T23:36:28.783Z,98887.28
2022-10-18T23:38:56.394Z,98883.13
2022-10-18T23:41:23.743Z,98880.44
2022-10-18T23:43:51.100Z,98878.19
2022-10-18T23:46:18.607Z,98886.47
2022-10-18T23:48:46.350Z,98871.19
2022-10-18T23:51:13.962Z,98867.47
2022-10-18T23:53:40.970Z,98865.81
2022-10-18T23:56:13.840Z,98880.66
2022-10-18T23:58:41.502Z,98877.78
